Time;durP1;ratioP1;P1;durP2;ratioP2;P2;SDS_P1;SDS_P2;PMS_P1;PMS_P2;Temp;Humidity;BMP_temperature;BMP_pressure;BME280_temperature;BME280_humidity;BME280_pressure;Samples;Min_cycle;Max_cycle;Signal;HPM_P1;HPM_P2
2023/12/12 00:00:21;;;;;;;19.08;10.85;;;1.40;99.90;;;;;;5033789;28;20021;-73
2023/12/12 00:02:47;;;;;;;20.08;10.40;;;1.40;99.90;;;;;;5033282;28;20037;-73
2023/12/12 00:05:13;;;;;;;19.65;10.38;;;1.40;99.90;;;;;;5033552;28;20029;-73
2023/12/12 00:07:39;;;;;;;22.40;10.73;;;1.40;99.90;;;;;;5033165;28;20470;-73
2023/12/12 00:10:05;;;;;;;20.88;11.18;;;1.40;99.90;;;;;;5033476;28;20048;-73
2023/12/12 00:12:31;;;;;;;21.88;10.65;;;1.40;99.90;;;;;;5031821;28;20041;-73
2023/12/12 00:14:57;;;;;;;20.08;10.45;;;1.40;99.90;;;;;;5033196;28;20034;-73
2023/12/12 00:17:23;;;;;;;21.67;10.40;;;1.40;99.90;;;;;;5034933;28;20482;-73
2023/12/12 00:19:48;;;;;;;19.42;10.40;;;1.30;99.90;;;;;;5036547;28;20397;-73
2023/12/12 00:22:14;;;;;;;19.25;9.90;;;1.30;99.90;;;;;;5037201;28;20500;-73
2023/12/12 00:24:40;;;;;;;20.85;10.45;;;1.30;99.90;;;;;;5037163;28;20452;-73
2023/12/12 00:27:05;;;;;;;19.70;10.20;;;1.30;99.90;;;;;;5037197;28;20025;-73
2023/12/12 00:29:35;;;;;;;24.90;10.70;;;1.30;99.90;;;;;;5036727;28;20033;-73
2023/12/12 00:32:01;;;;;;;21.23;11.35;;;1.30;99.90;;;;;;5037037;28;20483;-73
2023/12/12 00:34:27;;;;;;;21.92;10.73;;;1.30;99.90;;;;;;5037142;28;20449;-73
2023/12/12 00:36:52;;;;;;;20.35;9.93;;;1.30;99.90;;;;;;5036849;28;20058;-73
2023/12/12 00:39:18;;;;;;;22.40;10.75;;;1.30;99.90;;;;;;5036818;28;20025;-74
2023/12/12 00:41:45;;;;;;;24.27;11.35;;;1.30;99.90;;;;;;5037228;28;20049;-73
2023/12/12 00:44:11;;;;;;;20.88;9.98;;;1.30;99.90;;;;;;5036791;28;20394;-73
2023/12/12 00:46:37;;;;;;;20.38;10.75;;;1.30;99.90;;;;;;5036709;28;20038;-73
2023/12/12 00:49:03;;;;;;;19.33;10.15;;;1.30;99.90;;;;;;5036725;28;20478;-73
2023/12/12 00:51:28;;;;;;;20.67;8.88;;;1.20;99.90;;;;;;5036679;28;20040;-73
2023/12/12 00:53:54;;;;;;;23.13;10.70;;;1.30;99.90;;;;;;5035306;28;20056;-73
2023/12/12 00:56:20;;;;;;;22.73;11.05;;;1.20;99.90;;;;;;5036468;28;20110;-73
2023/12/12 00:58:45;;;;;;;19.35;9.75;;;1.30;99.90;;;;;;5036248;28;20025;-73
2023/12/12 01:01:13;;;;;;;20.50;10.40;;;1.20;99.90;;;;;;5036514;28;20104;-73
2023/12/12 01:03:39;;;;;;;20.52;11.55;;;1.20;99.90;;;;;;5036732;28;20025;-73
2023/12/12 01:06:06;;;;;;;19.08;10.13;;;1.20;99.90;;;;;;5036608;28;20045;-73
2023/12/12 01:08:31;;;;;;;19.85;10.73;;;1.20;99.90;;;;;;5035544;28;20040;-71
2023/12/12 01:10:57;;;;;;;21.50;11.82;;;1.20;99.90;;;;;;5036299;28;20033;-71
2023/12/12 01:13:23;;;;;;;22.00;10.80;;;1.20;99.90;;;;;;5036161;28;20060;-71
2023/12/12 01:15:48;;;;;;;21.83;9.50;;;1.10;99.90;;;;;;5036704;28;20034;-71
2023/12/12 01:18:14;;;;;;;17.83;9.13;;;1.10;99.90;;;;;;5034897;28;20484;-71
2023/12/12 01:20:39;;;;;;;20.38;9.32;;;1.10;99.90;;;;;;5036123;28;20478;-71
2023/12/12 01:23:05;;;;;;;19.70;10.63;;;1.20;99.90;;;;;;5036069;28;20478;-71
2023/12/12 01:25:31;;;;;;;15.75;8.57;;;1.20;99.90;;;;;;5036043;28;20037;-71
2023/12/12 01:27:57;;;;;;;20.42;9.90;;;1.10;99.90;;;;;;5035625;28;20032;-71
2023/12/12 01:30:23;;;;;;;18.00;9.13;;;1.10;99.90;;;;;;5035295;28;20029;-71
2023/12/12 01:32:48;;;;;;;17.90;9.05;;;1.10;99.90;;;;;;5036675;28;20086;-71
2023/12/12 01:35:14;;;;;;;20.20;9.38;;;1.10;99.90;;;;;;5035803;28;20092;-71
2023/12/12 01:37:40;;;;;;;26.50;11.52;;;1.10;99.90;;;;;;5035021;28;20034;-71
2023/12/12 01:40:07;;;;;;;21.95;10.45;;;1.10;99.90;;;;;;5036020;28;20552;-71
2023/12/12 01:42:32;;;;;;;20.75;9.95;;;1.10;99.90;;;;;;5034207;28;20057;-71
2023/12/12 01:44:58;;;;;;;22.23;10.73;;;1.10;99.90;;;;;;5035693;28;20084;-71
2023/12/12 01:47:24;;;;;;;21.10;10.23;;;1.10;99.90;;;;;;5035574;28;20084;-71
2023/12/12 01:49:50;;;;;;;18.60;9.15;;;1.10;99.90;;;;;;5035611;28;20088;-71
2023/12/12 01:52:16;;;;;;;20.67;9.68;;;1.10;99.90;;;;;;5034261;28;20124;-71
2023/12/12 01:54:49;;;;;;;19.73;9.55;;;1.00;99.90;;;;;;5034148;28;20033;-71
2023/12/12 01:57:18;;;;;;;18.17;8.80;;;1.10;99.90;;;;;;5034384;28;20136;-71
2023/12/12 01:59:45;;;;;;;20.35;10.00;;;1.00;99.90;;;;;;5035182;28;20539;-71
2023/12/12 02:02:12;;;;;;;14.80;8.02;;;1.00;99.90;;;;;;5034184;28;20025;-71
2023/12/12 02:04:39;;;;;;;16.80;8.40;;;0.90;99.90;;;;;;5035337;28;20026;-71
2023/12/12 02:07:05;;;;;;;15.05;7.45;;;0.90;99.90;;;;;;5035237;28;20033;-71
2023/12/12 02:09:31;;;;;;;16.08;8.18;;;0.90;99.90;;;;;;5035133;28;20454;-71
2023/12/12 02:11:57;;;;;;;14.00;7.53;;;0.90;99.90;;;;;;5035209;28;20029;-71
2023/12/12 02:14:23;;;;;;;17.60;8.95;;;0.80;99.90;;;;;;5034901;28;20512;-71
2023/12/12 02:16:49;;;;;;;18.30;8.95;;;0.90;99.90;;;;;;5034974;28;20104;-71
2023/12/12 02:19:16;;;;;;;15.52;8.05;;;0.90;99.90;;;;;;5034997;28;20363;-71
2023/12/12 02:21:42;;;;;;;19.92;9.35;;;0.90;99.90;;;;;;5034956;28;20071;-71
2023/12/12 02:24:07;;;;;;;19.58;9.00;;;0.90;99.90;;;;;;5034961;28;20519;-71
2023/12/12 02:26:33;;;;;;;20.55;9.38;;;0.90;99.90;;;;;;5035181;28;20038;-71
2023/12/12 02:28:59;;;;;;;21.80;10.73;;;0.90;99.90;;;;;;5034563;28;20029;-71
2023/12/12 02:31:25;;;;;;;19.27;9.57;;;0.90;99.90;;;;;;5035080;28;20464;-71
2023/12/12 02:33:51;;;;;;;26.02;10.07;;;0.90;99.90;;;;;;5034785;28;20117;-71
2023/12/12 02:36:16;;;;;;;26.52;11.40;;;0.90;99.90;;;;;;5034614;28;20073;-71
2023/12/12 02:38:42;;;;;;;20.20;9.82;;;0.90;99.90;;;;;;5034579;28;20025;-71
2023/12/12 02:41:08;;;;;;;21.27;10.05;;;0.90;99.90;;;;;;5033681;28;20064;-71
2023/12/12 02:43:35;;;;;;;18.90;9.40;;;0.90;99.90;;;;;;5034487;28;20025;-71
2023/12/12 02:46:01;;;;;;;19.10;9.50;;;0.90;99.90;;;;;;5034502;28;20117;-71
2023/12/12 02:48:26;;;;;;;19.13;9.07;;;0.90;99.90;;;;;;5034424;28;20053;-71
2023/12/12 02:50:52;;;;;;;18.58;9.65;;;0.90;99.90;;;;;;5034747;28;20057;-71
2023/12/12 02:53:18;;;;;;;18.17;8.65;;;0.90;99.90;;;;;;5034642;28;20389;-71
2023/12/12 02:55:43;;;;;;;19.23;9.35;;;0.90;99.90;;;;;;5034188;28;20401;-71
2023/12/12 02:58:09;;;;;;;21.23;10.25;;;0.90;99.90;;;;;;5034429;28;20026;-71
2023/12/12 03:00:35;;;;;;;23.55;10.52;;;0.90;99.90;;;;;;5034659;28;20542;-71
2023/12/12 03:03:07;;;;;;;22.35;9.90;;;0.90;99.90;;;;;;5111549;27;20406;-70
2023/12/12 03:05:32;;;;;;;22.80;10.18;;;0.90;99.90;;;;;;5093477;28;20481;-71
2023/12/12 03:07:58;;;;;;;23.30;10.43;;;0.90;99.90;;;;;;5111156;28;20422;-71
2023/12/12 03:10:24;;;;;;;24.15;10.70;;;0.90;99.90;;;;;;5111712;28;20099;-71
2023/12/12 03:12:49;;;;;;;21.63;9.30;;;0.90;99.90;;;;;;5111436;28;20032;-71
2023/12/12 03:15:15;;;;;;;22.48;10.35;;;0.90;99.90;;;;;;5111667;28;20106;-71
2023/12/12 03:17:41;;;;;;;21.77;10.52;;;0.90;99.90;;;;;;5113092;28;20107;-71
2023/12/12 03:20:08;;;;;;;21.58;10.20;;;1.00;99.90;;;;;;5116907;28;20024;-71
2023/12/12 03:22:33;;;;;;;24.80;10.73;;;1.00;99.90;;;;;;5114176;28;20074;-71
2023/12/12 03:25:00;;;;;;;21.23;10.18;;;1.00;99.90;;;;;;5097471;28;20032;-70
2023/12/12 03:27:26;;;;;;;25.15;10.88;;;1.00;99.90;;;;;;5113013;28;20020;-71
2023/12/12 03:29:52;;;;;;;24.10;10.90;;;1.00;99.90;;;;;;5114452;28;20028;-70
2023/12/12 03:32:17;;;;;;;18.63;8.65;;;1.00;99.90;;;;;;5116302;28;20032;-70
2023/12/12 03:34:43;;;;;;;20.48;9.73;;;1.00;99.90;;;;;;5115097;28;20460;-71
2023/12/12 03:37:09;;;;;;;26.02;11.02;;;1.00;99.90;;;;;;5097589;28;20032;-71
2023/12/12 03:39:37;;;;;;;25.95;11.18;;;1.00;99.90;;;;;;5110882;28;20089;-71
2023/12/12 03:42:03;;;;;;;24.88;11.90;;;1.00;99.90;;;;;;5110488;28;20020;-71
2023/12/12 03:44:29;;;;;;;26.08;11.57;;;1.00;99.90;;;;;;5110368;28;20024;-71
2023/12/12 03:46:54;;;;;;;28.40;12.77;;;0.90;99.90;;;;;;5110452;28;20020;-71
2023/12/12 03:49:20;;;;;;;28.48;11.95;;;0.90;99.90;;;;;;5110337;28;20092;-71
2023/12/12 03:51:46;;;;;;;24.73;11.60;;;0.90;99.90;;;;;;5110398;28;20463;-71
2023/12/12 03:54:11;;;;;;;24.63;11.07;;;1.00;99.90;;;;;;5110286;28;20024;-71
2023/12/12 03:56:37;;;;;;;26.00;11.38;;;1.00;99.90;;;;;;5110575;28;20038;-71
2023/12/12 03:59:03;;;;;;;25.42;10.98;;;1.00;99.90;;;;;;5109972;28;20103;-71
2023/12/12 04:01:28;;;;;;;25.92;11.95;;;1.00;99.90;;;;;;5110281;28;20042;-71
2023/12/12 04:03:55;;;;;;;23.40;11.27;;;0.90;99.90;;;;;;5110221;28;20551;-71
2023/12/12 04:06:22;;;;;;;28.23;11.23;;;0.90;99.90;;;;;;5110279;28;20434;-71
2023/12/12 04:08:49;;;;;;;24.48;11.00;;;0.90;99.90;;;;;;5109987;28;20023;-71
2023/12/12 04:11:18;;;;;;;27.90;12.20;;;0.90;99.90;;;;;;5110028;28;20060;-71
2023/12/12 04:13:44;;;;;;;25.52;11.45;;;1.00;99.90;;;;;;5100404;28;20103;-71
2023/12/12 04:16:09;;;;;;;24.60;11.35;;;0.90;99.90;;;;;;5096617;28;20119;-71
2023/12/12 04:18:35;;;;;;;21.58;10.23;;;0.90;99.90;;;;;;5078041;28;20031;-71
2023/12/12 04:21:01;;;;;;;22.90;9.27;;;0.90;99.90;;;;;;5096411;28;20054;-70
2023/12/12 04:23:26;;;;;;;19.17;9.30;;;0.90;99.90;;;;;;5096153;28;20077;-71
2023/12/12 04:25:52;;;;;;;19.35;9.15;;;0.90;99.90;;;;;;5096142;28;20077;-71
2023/12/12 04:28:17;;;;;;;18.50;8.93;;;0.90;99.90;;;;;;5095794;28;20027;-71
2023/12/12 04:30:43;;;;;;;17.17;8.35;;;0.90;99.90;;;;;;5096035;28;20128;-70
2023/12/12 04:33:09;;;;;;;17.55;8.38;;;0.90;99.90;;;;;;5096046;28;20487;-70
2023/12/12 04:35:35;;;;;;;19.42;9.35;;;0.90;99.90;;;;;;5095988;28;20047;-71
2023/12/12 04:38:00;;;;;;;18.10;9.63;;;0.90;99.90;;;;;;5095801;28;20028;-71
2023/12/12 04:40:29;;;;;;;19.05;8.75;;;0.90;99.90;;;;;;5095951;28;20378;-71
2023/12/12 04:42:55;;;;;;;17.73;8.55;;;0.90;99.90;;;;;;5095802;28;20020;-71
2023/12/12 04:45:20;;;;;;;18.50;8.95;;;0.90;99.90;;;;;;5095546;28;20082;-71
2023/12/12 04:47:46;;;;;;;20.45;8.98;;;0.90;99.90;;;;;;5095920;28;20028;-71
2023/12/12 04:50:12;;;;;;;16.88;8.63;;;0.90;99.90;;;;;;5095700;28;20024;-70
2023/12/12 04:52:38;;;;;;;15.60;8.07;;;0.90;99.90;;;;;;5095664;28;20051;-71
2023/12/12 04:55:04;;;;;;;17.63;9.20;;;0.90;99.90;;;;;;5077984;28;20077;-71
2023/12/12 04:57:29;;;;;;;16.85;8.48;;;0.90;99.90;;;;;;5095954;28;20043;-71
2023/12/12 04:59:55;;;;;;;17.88;8.82;;;0.90;99.90;;;;;;5095384;28;20051;-71
2023/12/12 05:02:21;;;;;;;17.48;8.95;;;0.90;99.90;;;;;;5077294;28;20050;-71
2023/12/12 05:04:46;;;;;;;18.90;8.68;;;0.90;99.90;;;;;;5095407;28;20052;-70
2023/12/12 05:07:12;;;;;;;20.38;9.55;;;0.90;99.90;;;;;;5095358;28;20028;-71
2023/12/12 05:09:38;;;;;;;23.08;10.60;;;0.90;99.90;;;;;;5095608;28;20114;-71
2023/12/12 05:12:04;;;;;;;20.10;9.02;;;0.90;99.90;;;;;;5095285;28;20050;-71
2023/12/12 05:14:29;;;;;;;19.85;8.48;;;0.80;99.90;;;;;;5094955;28;20028;-71
2023/12/12 05:16:55;;;;;;;15.98;8.05;;;0.80;99.90;;;;;;5077061;28;20441;-71
2023/12/12 05:19:20;;;;;;;37.08;18.23;;;0.80;99.90;;;;;;5095051;28;20508;-71
2023/12/12 05:21:46;;;;;;;35.25;17.13;;;0.80;99.90;;;;;;5095001;28;20503;-71
2023/12/12 05:24:12;;;;;;;34.00;16.85;;;0.80;99.90;;;;;;5094504;28;20047;-71
2023/12/12 05:26:38;;;;;;;28.58;15.00;;;0.80;99.90;;;;;;5094792;28;20365;-71
2023/12/12 05:29:04;;;;;;;25.77;13.73;;;0.80;99.90;;;;;;5094618;28;20031;-71
2023/12/12 05:31:29;;;;;;;22.63;12.27;;;0.80;99.90;;;;;;5094890;28;20455;-71
2023/12/12 05:33:55;;;;;;;20.58;10.50;;;0.80;99.90;;;;;;5095692;28;20048;-70
2023/12/12 05:36:21;;;;;;;17.40;8.90;;;0.80;99.90;;;;;;5098605;28;20036;-71
2023/12/12 05:38:47;;;;;;;17.95;9.80;;;0.80;99.90;;;;;;5096616;28;20032;-70
2023/12/12 05:41:14;;;;;;;16.30;9.00;;;0.80;99.90;;;;;;5095066;28;20028;-71
2023/12/12 05:43:39;;;;;;;15.38;8.70;;;0.80;99.90;;;;;;5098765;28;20115;-71
2023/12/12 05:46:05;;;;;;;15.05;8.55;;;0.80;99.90;;;;;;5098208;28;20056;-70
2023/12/12 05:48:31;;;;;;;16.17;7.97;;;0.80;99.90;;;;;;5099303;28;20020;-71
2023/12/12 05:50:57;;;;;;;15.35;7.75;;;0.80;99.90;;;;;;5080886;28;20035;-70
2023/12/12 05:53:23;;;;;;;14.73;7.13;;;0.80;99.90;;;;;;5098387;28;20020;-71
2023/12/12 05:55:49;;;;;;;15.82;8.02;;;0.80;99.90;;;;;;5080796;28;20357;-71
2023/12/12 05:58:15;;;;;;;14.90;7.63;;;0.80;99.90;;;;;;5094375;28;20056;-71
2023/12/12 06:00:40;;;;;;;14.38;7.75;;;0.80;99.90;;;;;;5098261;28;20046;-71
2023/12/12 06:03:06;;;;;;;16.30;8.38;;;0.80;99.90;;;;;;5059557;28;20043;-71
2023/12/12 06:05:32;;;;;;;27.15;12.07;;;0.80;99.90;;;;;;5059452;28;20522;-71
2023/12/12 06:07:57;;;;;;;57.47;24.02;;;0.80;99.90;;;;;;5076086;28;20480;-71
2023/12/12 06:10:23;;;;;;;58.60;27.10;;;0.80;99.90;;;;;;5094165;28;20025;-71
2023/12/12 06:12:48;;;;;;;31.92;14.90;;;0.80;99.90;;;;;;5094318;28;20063;-71
2023/12/12 06:15:14;;;;;;;24.83;11.38;;;0.80;99.90;;;;;;5093902;28;20035;-71
2023/12/12 06:17:40;;;;;;;22.08;10.20;;;0.80;99.90;;;;;;5076222;28;20036;-71
2023/12/12 06:20:07;;;;;;;17.70;8.63;;;0.80;99.90;;;;;;5094211;28;20500;-71
2023/12/12 06:22:34;;;;;;;18.42;8.77;;;0.80;99.90;;;;;;5075709;28;20035;-71
2023/12/12 06:24:59;;;;;;;15.85;7.95;;;0.80;99.90;;;;;;5093857;28;20024;-71
2023/12/12 06:27:25;;;;;;;17.20;7.82;;;0.80;99.90;;;;;;5093823;28;20069;-71
2023/12/12 06:29:51;;;;;;;19.27;9.10;;;0.80;99.90;;;;;;5075763;28;20024;-71
2023/12/12 06:32:16;;;;;;;19.42;8.85;;;0.80;99.90;;;;;;5093852;28;20101;-71
2023/12/12 06:34:45;;;;;;;19.40;9.57;;;0.80;99.90;;;;;;5093837;28;20035;-71
2023/12/12 06:37:11;;;;;;;17.48;8.40;;;0.80;99.90;;;;;;5093393;28;20077;-72
2023/12/12 06:39:36;;;;;;;16.20;7.88;;;0.80;99.90;;;;;;5093777;28;20028;-71
2023/12/12 06:42:03;;;;;;;17.58;7.78;;;0.80;99.90;;;;;;5094178;28;20423;-71
2023/12/12 06:44:29;;;;;;;13.15;6.82;;;0.80;99.90;;;;;;5093528;28;20024;-71
2023/12/12 06:46:55;;;;;;;13.48;6.38;;;0.80;99.90;;;;;;5093608;28;20032;-71
2023/12/12 06:49:20;;;;;;;13.02;6.97;;;0.80;99.90;;;;;;5093514;28;20024;-71
2023/12/12 06:51:46;;;;;;;12.63;6.57;;;0.80;99.90;;;;;;5093853;28;20024;-71
2023/12/12 06:54:12;;;;;;;13.85;6.70;;;0.80;99.90;;;;;;5093521;28;20058;-71
2023/12/12 06:56:37;;;;;;;13.65;7.35;;;0.80;99.90;;;;;;5093620;28;20032;-71
2023/12/12 06:59:05;;;;;;;14.57;7.25;;;0.80;99.90;;;;;;5093262;28;20059;-71
2023/12/12 07:01:31;;;;;;;16.27;7.38;;;0.80;99.90;;;;;;5093646;28;20043;-71
2023/12/12 07:03:57;;;;;;;14.05;7.28;;;0.80;99.90;;;;;;5093405;28;20024;-71
2023/12/12 07:06:23;;;;;;;15.82;8.00;;;0.80;99.90;;;;;;5093352;28;20095;-71
2023/12/12 07:08:49;;;;;;;17.05;7.88;;;0.80;99.90;;;;;;5093877;28;20021;-72
2023/12/12 07:11:16;;;;;;;19.08;8.20;;;0.80;99.90;;;;;;5093639;28;20027;-72
2023/12/12 07:13:41;;;;;;;35.13;17.88;;;0.80;99.90;;;;;;5093066;28;20503;-72
2023/12/12 07:16:10;;;;;;;30.00;15.60;;;0.80;99.90;;;;;;5075254;28;20036;-72
2023/12/12 07:18:39;;;;;;;26.48;12.63;;;0.80;99.90;;;;;;5093506;28;20108;-72
2023/12/12 07:21:05;;;;;;;24.25;11.48;;;0.80;99.90;;;;;;5093203;28;20476;-72
2023/12/12 07:23:31;;;;;;;18.67;9.98;;;0.80;99.90;;;;;;5094021;28;20073;-72
2023/12/12 07:25:58;;;;;;;22.25;10.70;;;0.80;99.90;;;;;;5093452;28;20024;-72
2023/12/12 07:28:23;;;;;;;23.30;11.07;;;0.80;99.90;;;;;;5093142;28;20028;-73
2023/12/12 07:30:49;;;;;;;17.55;9.48;;;0.80;99.90;;;;;;5092979;28;20028;-73
2023/12/12 07:33:15;;;;;;;21.08;9.32;;;0.70;99.90;;;;;;5093167;28;20024;-73
2023/12/12 07:35:40;;;;;;;16.63;8.02;;;0.80;99.90;;;;;;5093356;28;20387;-73
2023/12/12 07:38:07;;;;;;;15.55;7.70;;;0.80;99.90;;;;;;5093020;28;20047;-72
2023/12/12 07:40:32;;;;;;;20.40;8.27;;;0.80;99.90;;;;;;5093140;28;20031;-72
2023/12/12 07:42:58;;;;;;;21.40;7.97;;;0.80;99.90;;;;;;5092999;28;20024;-72
2023/12/12 07:45:24;;;;;;;17.63;7.28;;;0.80;99.90;;;;;;5092864;28;20129;-73
2023/12/12 07:47:50;;;;;;;19.58;8.15;;;0.80;99.90;;;;;;5093912;28;20490;-72
2023/12/12 07:50:19;;;;;;;21.27;7.60;;;0.80;99.90;;;;;;5078729;28;20024;-73
2023/12/12 07:52:44;;;;;;;14.93;7.10;;;0.90;99.90;;;;;;5096844;28;20066;-72
2023/12/12 07:55:10;;;;;;;15.85;7.22;;;0.80;99.90;;;;;;5097639;28;20077;-73
2023/12/12 07:57:36;;;;;;;14.80;7.00;;;0.90;99.90;;;;;;5097031;28;20532;-73
2023/12/12 08:00:06;;;;;;;13.40;6.05;;;0.90;99.90;;;;;;5096689;28;20499;-72
2023/12/12 08:02:32;;;;;;;13.85;7.10;;;0.90;99.90;;;;;;5096449;28;20036;-73
2023/12/12 08:04:58;;;;;;;12.82;6.75;;;1.00;99.90;;;;;;5096614;28;20024;-73
2023/12/12 08:07:24;;;;;;;14.85;8.02;;;1.00;99.90;;;;;;5096468;28;20050;-72
2023/12/12 08:09:49;;;;;;;14.52;8.18;;;1.00;99.90;;;;;;5096918;28;20027;-73
2023/12/12 08:12:16;;;;;;;13.32;7.00;;;1.10;99.90;;;;;;5096830;28;20024;-72
2023/12/12 08:14:42;;;;;;;17.30;9.27;;;1.10;99.90;;;;;;5096796;28;20054;-72
2023/12/12 08:17:07;;;;;;;14.43;7.60;;;1.20;99.90;;;;;;5096844;28;20028;-73
2023/12/12 08:19:33;;;;;;;14.98;7.40;;;1.10;99.90;;;;;;5096444;28;20028;-72
2023/12/12 08:21:59;;;;;;;19.60;8.57;;;1.10;99.90;;;;;;5097368;28;20084;-72
2023/12/12 08:24:25;;;;;;;16.52;7.97;;;1.10;99.90;;;;;;5097611;28;20536;-72
2023/12/12 08:26:50;;;;;;;14.55;7.47;;;1.10;99.90;;;;;;5096905;28;20036;-72
2023/12/12 08:29:16;;;;;;;16.30;7.68;;;1.10;99.90;;;;;;5097393;28;20020;-72
2023/12/12 08:31:42;;;;;;;19.60;8.75;;;1.10;99.90;;;;;;5097088;28;20107;-72
2023/12/12 08:34:08;;;;;;;14.35;6.88;;;1.10;99.90;;;;;;5096056;28;20039;-72
2023/12/12 08:36:34;;;;;;;15.55;7.40;;;1.20;99.90;;;;;;5096854;28;20126;-72
2023/12/12 08:39:01;;;;;;;13.82;6.75;;;1.20;99.90;;;;;;5078274;28;20043;-72
2023/12/12 08:41:31;;;;;;;12.25;6.30;;;1.20;99.90;;;;;;5096908;28;20028;-72
2023/12/12 08:44:00;;;;;;;10.40;5.72;;;1.20;99.90;;;;;;5095939;28;20032;-72
2023/12/12 08:46:28;;;;;;;8.88;5.05;;;1.20;99.90;;;;;;5096342;28;20016;-72
2023/12/12 08:48:58;;;;;;;9.73;5.13;;;1.30;99.90;;;;;;5077713;28;20067;-72
2023/12/12 08:51:25;;;;;;;11.32;6.32;;;1.30;99.90;;;;;;5097566;28;20032;-72
2023/12/12 08:53:53;;;;;;;13.80;7.13;;;1.30;99.90;;;;;;5096085;28;20553;-72
2023/12/12 08:56:19;;;;;;;12.38;6.65;;;1.40;99.90;;;;;;5078172;28;20035;-72
2023/12/12 08:58:48;;;;;;;9.75;5.78;;;1.40;99.90;;;;;;5078085;28;20027;-72
2023/12/12 09:01:15;;;;;;;13.20;6.68;;;1.50;99.90;;;;;;5095258;28;20028;-71
2023/12/12 09:03:41;;;;;;;14.77;6.72;;;1.50;99.90;;;;;;5095429;28;20027;-71
2023/12/12 09:06:07;;;;;;;12.52;6.85;;;1.60;99.90;;;;;;5095542;28;20020;-72
2023/12/12 09:08:33;;;;;;;12.60;6.80;;;1.70;99.90;;;;;;5095897;28;20028;-71
2023/12/12 09:10:59;;;;;;;13.20;6.68;;;1.90;99.90;;;;;;5077312;28;20031;-71
2023/12/12 09:13:25;;;;;;;11.15;6.32;;;1.90;99.90;;;;;;5095287;28;20036;-71
2023/12/12 09:15:51;;;;;;;11.15;6.45;;;2.00;99.90;;;;;;5095101;28;20034;-71
2023/12/12 09:18:17;;;;;;;12.57;6.65;;;2.00;99.90;;;;;;5095135;28;20020;-71
2023/12/12 09:20:42;;;;;;;12.90;7.53;;;2.10;99.90;;;;;;5095428;28;20506;-71
2023/12/12 09:23:08;;;;;;;12.85;6.65;;;2.20;99.90;;;;;;5095017;28;20426;-72
2023/12/12 09:25:34;;;;;;;11.18;7.03;;;2.30;99.90;;;;;;5095034;28;20024;-71
2023/12/12 09:27:59;;;;;;;10.88;5.95;;;2.40;99.90;;;;;;5095146;28;20509;-71
2023/12/12 09:30:25;;;;;;;10.07;5.60;;;2.40;99.90;;;;;;5094727;28;20073;-71
2023/12/12 09:32:51;;;;;;;10.10;5.55;;;2.50;99.90;;;;;;5094938;28;20523;-72
2023/12/12 09:35:17;;;;;;;8.43;4.85;;;2.50;99.90;;;;;;5094859;28;20032;-71
2023/12/12 09:37:42;;;;;;;11.30;5.75;;;2.40;99.90;;;;;;5094938;28;20086;-71
2023/12/12 09:40:12;;;;;;;11.73;6.65;;;2.40;99.90;;;;;;5094822;28;20544;-71
2023/12/12 09:42:40;;;;;;;12.00;6.47;;;2.40;99.90;;;;;;5076498;28;20036;-71
2023/12/12 09:45:13;;;;;;;12.00;6.18;;;2.50;99.90;;;;;;5094471;28;20431;-72
2023/12/12 09:47:42;;;;;;;10.95;6.03;;;2.60;99.90;;;;;;5094654;28;20012;-71
2023/12/12 09:50:10;;;;;;;10.85;5.93;;;2.60;99.90;;;;;;5094572;28;20024;-71
2023/12/12 09:52:36;;;;;;;9.45;5.53;;;2.70;99.90;;;;;;5094528;28;20027;-72
2023/12/12 09:55:03;;;;;;;9.93;5.43;;;2.80;99.90;;;;;;5094691;28;20028;-72
2023/12/12 09:57:30;;;;;;;7.85;4.28;;;2.80;99.90;;;;;;5094362;28;20028;-71
2023/12/12 09:59:56;;;;;;;8.77;4.97;;;2.80;99.90;;;;;;5094157;28;20024;-72
2023/12/12 10:02:26;;;;;;;8.32;5.53;;;2.90;99.90;;;;;;5094176;28;20028;-71
2023/12/12 10:04:53;;;;;;;9.15;6.25;;;2.90;99.90;;;;;;5094294;28;20065;-72
2023/12/12 10:07:23;;;;;;;9.63;6.10;;;2.90;99.90;;;;;;5094430;28;20024;-71
2023/12/12 10:09:49;;;;;;;8.35;5.85;;;2.90;99.90;;;;;;5094542;28;20476;-72
2023/12/12 10:12:15;;;;;;;8.65;6.00;;;2.90;99.90;;;;;;5093681;28;20127;-71
2023/12/12 10:14:47;;;;;;;8.65;5.43;;;2.90;99.90;;;;;;5093895;28;20453;-72
2023/12/12 10:17:13;;;;;;;10.68;5.70;;;2.90;99.90;;;;;;5094088;28;20020;-72
2023/12/12 10:19:39;;;;;;;10.50;6.03;;;2.90;99.90;;;;;;5094060;28;20107;-71
2023/12/12 10:22:06;;;;;;;11.80;6.82;;;2.90;99.90;;;;;;5094184;28;20028;-72
2023/12/12 10:24:33;;;;;;;25.65;12.73;;;2.90;99.90;;;;;;5093979;28;20020;-72
2023/12/12 10:26:59;;;;;;;16.80;9.00;;;2.90;99.90;;;;;;5093953;28;20361;-71
2023/12/12 10:29:25;;;;;;;12.23;6.80;;;2.90;99.90;;;;;;5093517;28;20073;-71
2023/12/12 10:31:52;;;;;;;10.25;6.10;;;2.90;99.90;;;;;;5093812;28;20035;-72
2023/12/12 10:34:19;;;;;;;10.93;5.57;;;3.00;99.90;;;;;;5075929;28;20373;-71
2023/12/12 10:36:50;;;;;;;9.35;5.70;;;3.00;99.90;;;;;;5094030;28;20404;-72
2023/12/12 10:39:16;;;;;;;8.45;5.03;;;3.10;99.90;;;;;;5094747;28;20031;-72
2023/12/12 10:41:55;;;;;;;8.40;5.25;;;3.10;99.90;;;;;;5093630;28;20028;-72
2023/12/12 10:44:24;;;;;;;7.55;4.63;;;3.10;99.90;;;;;;5093452;28;20024;-72
2023/12/12 10:46:54;;;;;;;8.70;5.22;;;3.10;99.90;;;;;;5094220;28;20455;-72
2023/12/12 10:49:23;;;;;;;8.63;5.32;;;3.10;99.90;;;;;;5093519;28;20028;-72
2023/12/12 10:51:49;;;;;;;8.73;4.90;;;3.10;99.90;;;;;;5093559;28;20023;-72
2023/12/12 10:54:17;;;;;;;9.48;5.35;;;3.10;99.90;;;;;;5075457;28;20056;-72
2023/12/12 10:56:46;;;;;;;7.40;4.65;;;3.20;99.90;;;;;;5093536;28;20479;-72
2023/12/12 10:59:16;;;;;;;7.38;4.25;;;3.20;99.90;;;;;;5093160;28;20027;-72
2023/12/12 11:01:47;;;;;;;6.07;4.15;;;3.20;99.90;;;;;;5093265;28;20392;-72
2023/12/12 11:04:14;;;;;;;10.02;5.55;;;3.20;99.90;;;;;;5093524;28;20411;-72
2023/12/12 11:06:42;;;;;;;11.00;5.65;;;3.20;99.90;;;;;;5093474;28;20035;-72
2023/12/12 11:09:08;;;;;;;7.70;5.40;;;3.20;99.90;;;;;;5093401;28;20020;-72
2023/12/12 11:11:36;;;;;;;7.07;5.07;;;3.20;99.90;;;;;;5093425;28;20032;-71
2023/12/12 11:14:02;;;;;;;8.27;5.03;;;3.20;99.90;;;;;;5093586;28;20034;-72
2023/12/12 11:16:28;;;;;;;9.18;5.70;;;3.20;99.90;;;;;;5093154;28;20024;-72
2023/12/12 11:18:56;;;;;;;31.30;16.13;;;3.30;99.90;;;;;;5093346;28;20020;-71
2023/12/12 11:21:45;;;;;;;110.68;51.35;;;3.30;99.90;;;;;;5093163;28;20364;-71
2023/12/12 11:24:12;;;;;;;66.60;30.63;;;3.30;99.90;;;;;;5083206;28;20133;-72
2023/12/12 11:26:41;;;;;;;77.53;34.28;;;3.30;99.90;;;;;;5097349;28;20020;-71
2023/12/12 11:29:07;;;;;;;28.65;11.70;;;3.30;99.90;;;;;;5097163;28;20103;-72
2023/12/12 11:31:36;;;;;;;9.50;5.43;;;3.40;99.90;;;;;;5097009;28;20111;-72
2023/12/12 11:34:09;;;;;;;8.40;5.50;;;3.40;99.90;;;;;;5097225;28;20048;-72
2023/12/12 11:36:57;;;;;;;10.70;5.50;;;3.40;99.90;;;;;;5097093;28;20025;-72
2023/12/12 11:39:46;;;;;;;7.50;4.78;;;3.40;99.90;;;;;;5097051;28;20073;-72
2023/12/12 11:42:23;;;;;;;7.47;4.47;;;3.40;99.90;;;;;;5097293;28;20020;-72
2023/12/12 11:44:54;;;;;;;8.20;4.63;;;3.40;99.90;;;;;;5096737;28;20024;-72
2023/12/12 11:47:23;;;;;;;6.90;4.45;;;3.40;99.90;;;;;;5096940;28;20491;-72
2023/12/12 11:49:49;;;;;;;10.63;5.85;;;3.50;99.90;;;;;;5096978;28;20070;-72
2023/12/12 11:52:36;;;;;;;9.73;5.30;;;3.50;99.90;;;;;;5097182;28;20028;-72
2023/12/12 11:55:02;;;;;;;9.73;6.38;;;3.40;99.90;;;;;;5096830;28;20077;-72
2023/12/12 11:57:29;;;;;;;13.95;7.45;;;3.40;99.90;;;;;;5078785;28;21650;-72
2023/12/12 11:59:54;;;;;;;13.70;7.03;;;3.40;99.90;;;;;;5096456;28;20074;-72
2023/12/12 12:02:20;;;;;;;9.88;5.95;;;3.30;99.90;;;;;;5096713;28;20071;-72
2023/12/12 12:04:46;;;;;;;11.45;6.03;;;3.20;99.90;;;;;;5096846;28;20024;-72
2023/12/12 12:07:12;;;;;;;11.05;5.93;;;3.20;99.90;;;;;;5096474;28;20035;-72
2023/12/12 12:09:41;;;;;;;10.80;6.13;;;3.10;99.90;;;;;;5096559;28;20384;-72
2023/12/12 12:12:10;;;;;;;11.30;7.15;;;3.20;99.90;;;;;;5096508;28;20073;-72
2023/12/12 12:14:35;;;;;;;10.48;6.15;;;3.10;99.90;;;;;;5096260;28;20518;-72
2023/12/12 12:17:01;;;;;;;12.48;7.63;;;3.10;99.90;;;;;;5096698;28;20055;-72
2023/12/12 12:19:31;;;;;;;11.07;6.95;;;3.10;99.90;;;;;;5096341;28;20031;-72
2023/12/12 12:22:08;;;;;;;9.82;6.38;;;3.10;99.90;;;;;;5096273;28;20502;-72
2023/12/12 12:24:44;;;;;;;11.27;6.47;;;3.00;99.90;;;;;;5078264;28;20024;-72
2023/12/12 12:27:10;;;;;;;16.60;8.38;;;3.00;99.90;;;;;;5096210;28;20024;-72
2023/12/12 12:29:35;;;;;;;20.15;11.48;;;3.00;99.90;;;;;;5095862;28;20027;-72
2023/12/12 12:32:14;;;;;;;25.35;13.65;;;3.00;99.90;;;;;;5096208;28;20388;-72
2023/12/12 12:34:40;;;;;;;43.28;21.08;;;3.00;99.90;;;;;;5095576;28;20027;-72
2023/12/12 12:37:06;;;;;;;24.02;12.48;;;2.90;99.90;;;;;;5096233;28;20031;-72
2023/12/12 12:39:44;;;;;;;17.98;9.90;;;2.90;99.90;;;;;;5096038;28;20020;-72
2023/12/12 12:42:10;;;;;;;16.10;9.13;;;2.90;99.90;;;;;;5095854;28;20058;-72